Sanostee, NM (87461)

3:02 AM MDT on August 01, 2014 (GMT -0600)
Four Corners Regional (KFMN) Elev 5502 ft | 36.74 °N, 108.23 °W | Change Station

Current weather conditions updated 9 minutes ago

Clear
Clear
65 °F
Feels Like 65 °F
N
5
Wind Variable Wind from ENE

Today is forecast to be Cooler than yesterday. Scattered thunderstorms.

Today
High -- | Low -- °F
--% Chance of Precip.
Yesterday
High -- | Low -- °F
Precip. -- in
6:21 AM 8:21 PM
Waxing Crescent, 25% visible
Pressure 30.01 in
Visibility 10.0 miles
Clouds Clear
Dew Point 53 °F
Humidity 65%
Rainfall 0.00 in
Snow Depth Not available.
UV 0 out of 12
Pollen 5.20 out of 12
Air Quality Not available.
Flu Activity Not available.
METAR KFMN 010853Z AUTO 06004KT 10SM CLR 18/12 A3021 RMK AO2 SLP162 60000 T01830117 58001

More Conditions Fewer Conditions

Pressure 30.01 in
Visibility 10.0 miles
Clouds Clear
Dew Point 53 °F
Humidity 65%
Rainfall 0.00 in
Snow Depth Not available.
UV 0 out of 12
Pollen 5.20 out of 12
Air Quality Not available.
Flu Activity Not available.
METAR KFMN 010853Z AUTO 06004KT 10SM CLR 18/12 A3021 RMK AO2 SLP162 60000 T01830117 58001

More Conditions Fewer Conditions

10-Day Weather Forecast

Almanac

Astronomy

Aug. 01, 2014 Rise Set
Actual Time 6:21 AM MDT 8:21 PM MDT
Civil Twilight 5:53 AM MDT 8:49 PM MDT
Nautical Twilight 5:18 AM MDT 9:24 PM MDT
Astronomical Twilight 4:41 AM MDT 10:01 PM MDT
Moon 11:38 AM MDT 11:18 PM MDT
Length of Visible Light 14h 55m
Length of Day
13h 59m
Tomorrow will be 1m 45s shorter.
Waxing Crescent, 25% of the Moon is Illuminated
Today
Waxing Crescent
Aug 3
First Quarter
Aug 10
Full
Aug 17
Last Quarter
Aug 25
New

Today's Extremes

State Highs State Lows

Community

WunderPhotos

Upload Photos

1,739,529 photos uploaded!

Nearby

Snow Depth

Station Depth Elevation
Chamita 0 in 8400 ft
Bateman 0 in 9300 ft
Hopewell 0 in 10000 ft
Santa Fe 2 in 11445 ft
Elk Cabin 111 in 8210 ft

Earthquake Activity

City Distance Mag. Time & Date
No recent earthquake activity has been reported nearby.
Minimum magnitude displayed is 2.5.

Coastal Water Temperatures

Place Temperature
No Stations Reporting

Nearby Weather Stations

Station Location Temp. Dew Point Humidity Wind Precip. Elev Updated Type
RAWS WASHINGTON PASS NM, Sheep Springs, NM 55 °F 42 °F 61% WSW  at  4 mph 0.00 in / hr 9352 ft 1:41 AM MDT MADIS

Show More Stations Show Fewer Stations